Time;durP1;ratioP1;P1;durP2;ratioP2;P2;SDS_P1;SDS_P2;PMS_P1;PMS_P2;Temp;Humidity;BMP_temperature;BMP_pressure;BME280_temperature;BME280_humidity;BME280_pressure;Samples;Min_cycle;Max_cycle;Signal;HPM_P1;HPM_P2
2022/08/11 00:00:09;;;;;;;3.70;2.88;;;22.00;99.90;;;;;;5113863;28;20664;-70
2022/08/11 00:02:39;;;;;;;6.85;3.25;;;22.00;99.90;;;;;;5113339;28;20199;-70
2022/08/11 00:05:09;;;;;;;4.75;3.00;;;21.90;1.00;;;;;;5113562;28;20178;-71
2022/08/11 00:07:46;;;;;;;3.72;3.42;;;21.90;1.00;;;;;;5113496;28;20214;-70
2022/08/11 00:10:15;;;;;;;3.10;2.90;;;21.90;1.00;;;;;;5113556;28;20170;-70
2022/08/11 00:12:43;;;;;;;2.92;2.72;;;21.90;1.00;;;;;;5113710;28;20182;-70
2022/08/11 00:15:11;;;;;;;3.90;3.17;;;21.80;1.00;;;;;;5113614;28;20170;-71
2022/08/11 00:17:37;;;;;;;5.68;3.13;;;21.80;1.00;;;;;;5112969;28;20254;-71
2022/08/11 00:20:12;;;;;;;4.40;2.70;;;21.70;1.00;;;;;;5113422;28;20167;-70
2022/08/11 00:22:40;;;;;;;3.10;2.70;;;21.70;1.00;;;;;;5113632;28;20179;-71
2022/08/11 00:25:20;;;;;;;5.80;3.20;;;21.70;1.00;;;;;;5113475;28;20168;-71
2022/08/11 00:27:48;;;;;;;4.63;3.38;;;21.60;99.90;;;;;;5095152;28;20245;-70
2022/08/11 00:30:15;;;;;;;3.17;2.92;;;21.50;99.90;;;;;;5113241;28;20282;-71
2022/08/11 00:32:43;;;;;;;3.53;2.80;;;21.50;99.90;;;;;;5113056;28;20297;-71
2022/08/11 00:35:16;;;;;;;5.45;3.20;;;21.50;99.90;;;;;;5113478;28;20175;-71
2022/08/11 00:37:48;;;;;;;3.08;2.83;;;21.50;1.00;;;;;;5114153;27;20175;-71
2022/08/11 00:40:22;;;;;;;4.00;2.80;;;21.40;1.00;;;;;;5117372;28;20174;-70
2022/08/11 00:43:41;;;;;;;6.15;3.17;;;21.40;1.00;;;;;;5117359;28;20634;-70
2022/08/11 00:46:27;;;;;;;5.45;3.33;;;21.30;91.50;;;;;;5043904;28;20693;-71
2022/08/11 00:49:10;;;;;;;3.08;2.75;;;21.30;99.90;;;;;;5117350;28;20163;-71
2022/08/11 00:52:08;;;;;;;4.95;3.22;;;21.30;99.90;;;;;;5117063;28;20167;-71
2022/08/11 00:55:15;;;;;;;6.45;3.05;;;21.30;99.90;;;;;;5082387;28;20207;-71
2022/08/11 00:57:52;;;;;;;4.20;3.67;;;21.20;1.00;;;;;;5088936;28;20189;-71
2022/08/11 01:00:23;;;;;;;6.18;3.50;;;21.20;99.90;;;;;;5116373;28;20171;-71
2022/08/11 01:03:07;;;;;;;3.20;3.00;;;21.10;99.90;;;;;;5116988;28;20272;-70
2022/08/11 01:06:19;;;;;;;6.07;3.28;;;21.10;1.00;;;;;;5116764;28;20167;-70
2022/08/11 01:08:53;;;;;;;3.38;3.13;;;21.10;1.00;;;;;;5116854;28;20178;-70
2022/08/11 01:11:48;;;;;;;5.30;3.25;;;21.00;1.90;;;;;;5116685;28;20701;-70
2022/08/11 01:14:22;;;;;;;7.00;3.35;;;21.00;99.90;;;;;;5113822;28;20176;-71
2022/08/11 01:17:12;;;;;;;5.47;3.42;;;21.00;1.00;;;;;;5116422;28;20222;-70
2022/08/11 01:20:08;;;;;;;6.85;3.20;;;21.00;1.00;;;;;;5116879;28;20178;-70
2022/08/11 01:22:52;;;;;;;5.47;3.53;;;20.90;1.00;;;;;;5116672;28;20167;-70
2022/08/11 01:25:48;;;;;;;4.05;3.20;;;20.90;99.90;;;;;;5116840;28;20190;-70
2022/08/11 01:28:40;;;;;;;4.05;3.53;;;20.80;1.00;;;;;;5098109;28;20704;-70
2022/08/11 01:31:39;;;;;;;3.25;3.03;;;20.70;99.90;;;;;;5077561;28;20179;-70
2022/08/11 01:34:26;;;;;;;4.85;3.08;;;20.70;1.00;;;;;;5116407;28;20175;-70
2022/08/11 01:37:26;;;;;;;5.75;3.03;;;20.70;1.00;;;;;;5116237;28;20630;-71
2022/08/11 01:40:22;;;;;;;5.30;3.40;;;20.60;1.00;;;;;;5116351;28;20172;-70
2022/08/11 01:46:29;;;;;;;3.13;2.83;;;20.60;99.90;;;;;;5116164;28;20223;-71
2022/08/11 01:49:10;;;;;;;3.42;2.97;;;20.50;99.90;;;;;;5097552;28;20228;-71
2022/08/11 01:52:12;;;;;;;3.53;2.90;;;20.40;1.00;;;;;;5116176;28;20177;-71
2022/08/11 01:55:01;;;;;;;3.30;3.00;;;20.50;1.00;;;;;;5115798;28;20167;-70
2022/08/11 01:57:41;;;;;;;4.72;2.85;;;20.40;1.00;;;;;;5115825;28;20211;-71
2022/08/11 02:00:15;;;;;;;6.75;3.40;;;20.40;99.90;;;;;;5115512;28;20189;-71
2022/08/11 02:02:52;;;;;;;4.65;3.42;;;20.40;99.90;;;;;;5115745;28;20175;-71
2022/08/11 02:05:42;;;;;;;7.18;3.38;;;20.30;1.00;;;;;;5115691;28;20638;-71
2022/08/11 02:08:20;;;;;;;3.17;2.80;;;20.30;1.00;;;;;;5115683;28;20257;-71
2022/08/11 02:13:46;;;;;;;4.80;2.90;;;20.20;99.90;;;;;;5115365;28;20564;-70
2022/08/11 02:16:23;;;;;;;3.47;3.20;;;20.20;49.00;;;;;;5115488;28;20249;-70
2022/08/11 02:25:41;;;;;;;6.28;3.13;;;20.00;1.00;;;;;;5115192;28;20181;-71
2022/08/11 02:28:20;;;;;;;3.00;2.80;;;20.00;1.00;;;;;;5114806;28;20264;-70
2022/08/11 02:34:43;;;;;;;6.38;3.33;;;19.90;42.70;;;;;;5115556;28;20258;-71
2022/08/11 02:37:33;;;;;;;3.90;3.08;;;19.80;99.90;;;;;;5052418;28;20179;-71
2022/08/11 02:40:04;;;;;;;8.82;3.28;;;19.80;99.90;;;;;;5115060;28;20256;-70
2022/08/11 02:43:02;;;;;;;4.35;3.20;;;19.70;99.90;;;;;;5114376;28;20167;-70
2022/08/11 02:45:31;;;;;;;4.90;3.28;;;19.60;99.90;;;;;;5062688;28;20211;-71
2022/08/11 02:51:10;;;;;;;4.80;3.05;;;19.60;99.90;;;;;;5114816;28;20175;-70
2022/08/11 02:53:50;;;;;;;3.50;3.20;;;19.60;99.90;;;;;;5114666;28;20167;-71
2022/08/11 02:56:44;;;;;;;4.95;3.60;;;19.60;99.90;;;;;;5114234;28;20167;-71
2022/08/11 02:59:50;;;;;;;4.47;3.63;;;19.50;99.90;;;;;;5114445;28;20181;-70
2022/08/11 03:02:40;;;;;;;13.50;3.88;;;19.50;1.00;;;;;;5114140;28;20752;-70
2022/08/11 03:05:15;;;;;;;6.93;3.15;;;19.50;1.00;;;;;;5114709;28;20224;-70
2022/08/11 03:08:10;;;;;;;4.85;3.33;;;19.50;1.00;;;;;;5114418;28;20202;-70
2022/08/11 03:17:26;;;;;;;6.70;3.72;;;19.30;1.00;;;;;;5113755;28;20226;-70
2022/08/11 03:19:58;;;;;;;8.18;4.10;;;19.30;1.00;;;;;;5114208;28;20174;-70
2022/08/11 03:22:33;;;;;;;7.78;3.83;;;19.20;1.00;;;;;;5114067;28;20167;-70
2022/08/11 03:25:04;;;;;;;7.03;3.95;;;19.20;1.00;;;;;;5095669;28;20652;-70
2022/08/11 03:27:38;;;;;;;6.07;3.58;;;19.10;1.00;;;;;;5114092;28;20237;-70
2022/08/11 03:30:38;;;;;;;5.65;3.60;;;19.10;1.00;;;;;;5113890;28;20183;-71
2022/08/11 03:36:45;;;;;;;6.65;3.80;;;19.00;1.00;;;;;;5114175;28;20205;-70
2022/08/11 03:39:33;;;;;;;6.57;3.90;;;19.00;1.00;;;;;;5113976;28;20174;-70
2022/08/11 03:42:05;;;;;;;7.43;3.60;;;18.90;1.00;;;;;;5113801;28;20167;-70
2022/08/11 03:44:45;;;;;;;10.25;3.85;;;18.90;1.00;;;;;;5113925;28;20175;-70
2022/08/11 03:47:32;;;;;;;8.18;3.85;;;18.90;1.00;;;;;;5113491;28;20199;-71
2022/08/11 03:50:13;;;;;;;5.27;4.17;;;18.90;1.00;;;;;;5113625;28;20205;-71
2022/08/11 03:53:00;;;;;;;5.72;4.40;;;18.80;1.00;;;;;;5113642;28;20171;-71
2022/08/11 03:55:46;;;;;;;5.37;3.93;;;18.70;1.00;;;;;;5113053;28;20198;-70
2022/08/11 03:58:57;;;;;;;5.40;4.40;;;18.80;1.00;;;;;;5113417;28;20236;-70
2022/08/11 04:01:49;;;;;;;5.97;4.20;;;18.70;1.00;;;;;;5095044;28;20494;-70
2022/08/11 04:04:42;;;;;;;4.63;3.90;;;18.60;1.00;;;;;;5081894;28;20190;-70
2022/08/11 04:07:32;;;;;;;8.00;4.27;;;18.60;1.00;;;;;;5094632;28;20217;-70
2022/08/11 04:10:26;;;;;;;7.53;4.30;;;18.60;1.00;;;;;;5112962;28;20159;-71
2022/08/11 04:13:08;;;;;;;9.90;4.50;;;18.50;1.00;;;;;;5097832;28;20173;-70
2022/08/11 04:16:11;;;;;;;7.17;4.20;;;18.50;1.00;;;;;;5117069;28;20634;-70
2022/08/11 04:19:20;;;;;;;7.77;4.57;;;18.60;1.00;;;;;;5098858;28;20638;-72
2022/08/11 04:22:24;;;;;;;8.10;4.47;;;18.60;1.00;;;;;;5117202;28;20171;-71
2022/08/11 04:25:27;;;;;;;11.83;4.70;;;18.60;1.00;;;;;;5034220;28;20178;-70
2022/08/11 04:27:53;;;;;;;10.47;4.87;;;18.60;1.00;;;;;;5098857;28;20639;-70
2022/08/11 04:30:43;;;;;;;16.17;5.47;;;18.60;1.00;;;;;;5098812;28;20698;-71
2022/08/11 04:33:42;;;;;;;12.00;5.07;;;18.60;1.00;;;;;;5098456;28;20171;-70
2022/08/11 04:37:31;;;;;;;12.67;4.43;;;18.60;1.00;;;;;;5117262;28;20181;-70
2022/08/11 04:39:23;;;;;;;10.73;4.33;;;18.50;1.00;;;;;;5116430;28;20173;-71
2022/08/11 04:45:10;;;;;;;18.67;5.25;;;19.10;1.00;;;;;;5116964;28;20182;-72
2022/08/11 05:03:32;;;;;;;20.77;5.50;;;22.30;99.90;;;;;;5116640;28;20224;-72
2022/08/11 05:06:08;;;;;;;16.85;5.25;;;23.10;1.00;;;;;;5116319;28;20160;-72
2022/08/11 05:09:18;;;;;;;22.30;5.47;;;23.70;99.90;;;;;;5115890;28;20208;-72
2022/08/11 05:12:11;;;;;;;25.52;5.63;;;24.10;20.40;;;;;;5116297;28;20205;-72
2022/08/11 05:35:34;;;;;;;14.10;5.82;;;27.30;99.90;;;;;;5115757;28;20185;-73
2022/08/11 05:57:31;;;;;;;17.02;5.35;;;32.80;93.50;;;;;;5115515;28;20236;-74
2022/08/11 06:00:04;;;;;;;13.88;5.93;;;32.70;89.50;;;;;;5115015;28;20178;-73
2022/08/11 06:02:30;;;;;;;14.60;5.65;;;32.90;79.10;;;;;;5114984;28;20171;-73
2022/08/11 06:04:57;;;;;;;17.10;5.50;;;33.30;65.10;;;;;;5114386;28;20182;-73
2022/08/11 06:07:29;;;;;;;12.18;5.47;;;33.20;65.30;;;;;;5114663;28;20564;-72
2022/08/11 06:09:58;;;;;;;16.15;5.25;;;32.90;56.90;;;;;;5114751;28;20590;-73
2022/08/11 06:12:25;;;;;;;16.05;5.72;;;32.40;59.10;;;;;;5114605;28;20171;-71
2022/08/11 06:14:54;;;;;;;11.25;5.40;;;32.70;62.60;;;;;;5105923;28;20366;-71
2022/08/11 06:17:26;;;;;;;10.68;5.97;;;33.30;56.20;;;;;;5107767;28;20215;-70
2022/08/11 06:20:10;;;;;;;20.13;5.57;;;33.60;47.90;;;;;;5114376;28;20182;-71
2022/08/11 06:22:37;;;;;;;8.80;5.10;;;34.20;43.00;;;;;;5114531;28;20477;-72
2022/08/11 06:25:04;;;;;;;12.90;5.03;;;33.20;39.80;;;;;;5108376;28;20199;-71
2022/08/11 06:27:34;;;;;;;13.65;5.95;;;33.30;38.50;;;;;;5103705;28;20601;-71
2022/08/11 06:30:01;;;;;;;13.73;5.32;;;33.40;36.70;;;;;;5095863;28;20244;-71
2022/08/11 06:32:31;;;;;;;12.85;5.45;;;33.90;31.90;;;;;;5110128;28;20228;-72
2022/08/11 06:35:14;;;;;;;18.27;6.10;;;33.70;31.30;;;;;;5110592;28;20263;-71
2022/08/11 06:37:54;;;;;;;13.52;5.00;;;35.20;25.20;;;;;;5086693;28;20707;-71
2022/08/11 06:40:35;;;;;;;15.35;4.78;;;36.20;16.70;;;;;;5092892;28;20163;-73
2022/08/11 06:43:03;;;;;;;9.07;4.43;;;36.00;10.80;;;;;;5112644;28;20166;-71
2022/08/11 06:45:39;;;;;;;13.35;4.65;;;35.10;10.50;;;;;;5112259;28;20569;-72
2022/08/11 06:48:13;;;;;;;7.82;3.78;;;34.40;11.30;;;;;;5113155;28;20558;-71
2022/08/11 06:51:13;;;;;;;5.95;4.10;;;34.00;11.70;;;;;;5094534;28;20175;-73
2022/08/11 06:53:33;;;;;;;7.68;4.15;;;34.80;7.50;;;;;;5079465;28;20171;-72
2022/08/11 07:02:02;;;;;;;6.80;4.20;;;33.90;7.50;;;;;;5098651;28;20174;-73
2022/08/11 07:04:55;;;;;;;6.75;3.45;;;34.60;6.70;;;;;;5101905;28;20183;-73
2022/08/11 07:16:40;;;;;;;5.55;3.60;;;36.30;1.00;;;;;;5113182;28;20218;-73
2022/08/11 07:30:43;;;;;;;3.45;3.20;;;36.50;1.00;;;;;;5112430;28;20182;-73
2022/08/11 07:33:12;;;;;;;5.57;3.70;;;35.90;1.00;;;;;;5112125;28;20633;-74
2022/08/11 07:35:41;;;;;;;3.72;3.42;;;35.90;1.00;;;;;;5111585;28;20182;-75
2022/08/11 07:38:13;;;;;;;5.78;3.55;;;34.90;1.00;;;;;;5112570;28;20195;-75
2022/08/11 07:40:38;;;;;;;5.55;3.70;;;34.10;1.00;;;;;;5098735;28;20443;-76
2022/08/11 07:43:05;;;;;;;8.43;3.60;;;33.60;1.00;;;;;;5112739;27;20171;-76
2022/08/11 07:53:49;;;;;;;10.45;3.63;;;34.50;1.00;;;;;;5112203;28;20182;-75
2022/08/11 07:56:18;;;;;;;8.13;3.47;;;36.20;1.00;;;;;;5112029;28;20167;-77
2022/08/11 08:18:06;;;;;;;3.40;3.08;;;34.40;1.00;;;;;;5111884;28;20236;-76
2022/08/11 08:21:10;;;;;;;3.95;2.80;;;34.80;1.00;;;;;;5093997;28;20564;-77
2022/08/11 08:23:38;;;;;;;3.58;3.22;;;35.30;1.00;;;;;;5097017;28;20190;-76
2022/08/11 08:31:49;;;;;;;7.10;3.47;;;32.60;1.00;;;;;;5111444;28;20232;-75
2022/08/11 08:34:16;;;;;;;4.43;3.22;;;33.20;1.00;;;;;;5112127;28;20180;-74
2022/08/11 08:36:46;;;;;;;3.45;3.17;;;33.00;1.00;;;;;;5105415;28;20592;-76
2022/08/11 08:39:13;;;;;;;4.18;3.15;;;32.90;1.00;;;;;;5110908;28;20583;-73
2022/08/11 08:41:40;;;;;;;4.35;3.10;;;33.60;1.00;;;;;;5112112;28;20175;-73
2022/08/11 08:44:10;;;;;;;9.80;3.35;;;34.50;1.00;;;;;;5093368;28;20172;-72
2022/08/11 08:46:44;;;;;;;4.43;3.10;;;35.40;1.00;;;;;;5111342;28;20189;-74
2022/08/11 08:49:16;;;;;;;3.22;2.90;;;35.90;1.00;;;;;;5111702;28;20182;-72
2022/08/11 08:51:45;;;;;;;4.10;3.00;;;35.90;1.00;;;;;;5111190;28;20174;-76
2022/08/11 08:54:18;;;;;;;5.45;3.25;;;36.30;1.00;;;;;;5107871;28;20177;-77
2022/08/11 08:56:45;;;;;;;5.63;3.10;;;36.80;1.00;;;;;;5108681;28;20201;-75
2022/08/11 08:59:13;;;;;;;5.00;3.25;;;36.20;1.00;;;;;;5101945;28;20184;-77
2022/08/11 09:01:48;;;;;;;3.28;3.08;;;35.10;1.00;;;;;;5113717;28;20171;-77
2022/08/11 09:04:14;;;;;;;7.68;3.40;;;34.50;1.00;;;;;;5115251;28;20175;-73
2022/08/11 09:06:43;;;;;;;6.25;3.30;;;34.30;1.00;;;;;;5096639;28;20197;-74
2022/08/11 09:09:11;;;;;;;7.28;2.90;;;34.80;1.00;;;;;;5114962;28;20214;-74
2022/08/11 09:11:52;;;;;;;5.25;3.20;;;36.30;1.00;;;;;;5113063;28;20182;-75
2022/08/11 09:14:19;;;;;;;4.07;3.20;;;35.70;1.00;;;;;;5114762;28;20167;-74
2022/08/11 09:16:46;;;;;;;3.40;3.20;;;34.80;1.00;;;;;;5114365;28;20628;-74
2022/08/11 09:19:19;;;;;;;7.97;3.00;;;33.90;1.00;;;;;;5115293;28;20167;-73
2022/08/11 09:27:21;;;;;;;5.80;3.03;;;33.50;1.00;;;;;;5114468;28;20217;-75
2022/08/11 09:29:47;;;;;;;3.35;2.88;;;33.80;1.00;;;;;;5114970;28;20163;-75
2022/08/11 09:32:13;;;;;;;5.50;3.60;;;33.20;1.00;;;;;;5113869;28;20240;-75
2022/08/11 09:34:40;;;;;;;5.82;3.72;;;33.00;1.00;;;;;;5112213;28;20173;-76
2022/08/11 09:45:24;;;;;;;3.38;3.08;;;33.80;1.00;;;;;;5113591;28;20225;-75
2022/08/11 09:47:50;;;;;;;3.50;3.05;;;34.00;1.00;;;;;;5095243;28;20321;-76
2022/08/11 09:50:17;;;;;;;6.32;3.38;;;34.60;1.00;;;;;;5113985;28;20199;-75
2022/08/11 09:52:44;;;;;;;3.67;3.20;;;34.80;1.00;;;;;;5114207;28;20210;-76
2022/08/11 09:55:13;;;;;;;5.25;2.90;;;35.20;1.00;;;;;;5111644;28;20757;-75
2022/08/11 10:00:36;;;;;;;4.18;2.97;;;34.40;1.00;;;;;;5114244;28;20248;-76
2022/08/11 10:03:06;;;;;;;4.30;3.33;;;33.20;1.00;;;;;;5113981;28;20646;-78
2022/08/11 10:08:19;;;;;;;6.38;3.42;;;33.90;1.00;;;;;;5113150;28;20784;-74
2022/08/11 10:10:46;;;;;;;4.32;3.45;;;34.00;1.00;;;;;;5112770;28;20254;-75
2022/08/11 10:13:32;;;;;;;7.47;3.92;;;33.90;1.00;;;;;;5113632;27;20186;-75
2022/08/11 10:16:02;;;;;;;4.38;3.10;;;33.10;1.00;;;;;;5111276;28;20214;-74
2022/08/11 10:18:48;;;;;;;4.93;4.40;;;34.30;1.00;;;;;;5113287;28;20175;-77
2022/08/11 10:21:23;;;;;;;4.53;3.20;;;33.70;1.00;;;;;;5113519;28;20167;-77
2022/08/11 10:26:53;;;;;;;3.45;2.92;;;33.60;1.00;;;;;;5113186;28;20186;-76
2022/08/11 10:35:02;;;;;;;4.38;3.00;;;35.60;1.00;;;;;;5110601;28;21017;-76
2022/08/11 10:37:33;;;;;;;5.18;3.08;;;35.40;1.00;;;;;;5112873;28;20154;-75
2022/08/11 10:40:00;;;;;;;3.40;2.70;;;34.80;1.00;;;;;;5112539;28;20178;-77
2022/08/11 10:47:55;;;;;;;5.35;3.42;;;34.70;1.00;;;;;;5110168;28;20307;-78
2022/08/11 10:58:50;;;;;;;5.57;3.17;;;33.60;1.00;;;;;;5112865;28;20405;-78
2022/08/11 11:01:23;;;;;;;6.38;3.05;;;33.60;1.00;;;;;;5111128;28;20163;-78
2022/08/11 11:04:03;;;;;;;4.00;3.25;;;33.70;1.00;;;;;;5112722;28;20171;-75
2022/08/11 11:06:47;;;;;;;4.35;3.28;;;33.90;1.00;;;;;;5112009;28;20347;-77
2022/08/11 11:09:22;;;;;;;5.28;3.20;;;34.20;1.00;;;;;;5112168;28;20208;-75
2022/08/11 11:20:26;;;;;;;5.10;3.28;;;33.80;1.00;;;;;;5110230;28;20190;-79
2022/08/11 11:22:59;;;;;;;6.05;3.20;;;33.60;1.00;;;;;;5111441;28;20200;-78
2022/08/11 11:26:12;;;;;;;4.78;4.03;;;34.10;1.00;;;;;;5112150;28;20194;-80
2022/08/11 11:29:01;;;;;;;3.70;3.40;;;33.30;1.00;;;;;;5029492;28;20210;-75
2022/08/11 11:32:14;;;;;;;4.97;3.35;;;32.20;1.00;;;;;;5027703;28;20208;-74
2022/08/11 11:35:08;;;;;;;4.63;3.20;;;32.20;1.00;;;;;;5031764;28;20210;-74
2022/08/11 11:37:34;;;;;;;4.72;3.00;;;33.50;1.00;;;;;;5097121;28;20171;-74
2022/08/11 11:40:01;;;;;;;3.80;3.20;;;34.10;1.00;;;;;;5111493;28;20227;-73
2022/08/11 11:42:28;;;;;;;5.15;3.33;;;34.20;1.00;;;;;;5112090;28;20175;-73
2022/08/11 11:44:54;;;;;;;5.28;3.17;;;33.60;1.00;;;;;;5112434;28;20615;-74
2022/08/11 11:47:21;;;;;;;6.20;3.53;;;33.80;1.00;;;;;;5093719;28;20222;-72
2022/08/11 11:49:48;;;;;;;3.45;2.80;;;33.40;1.00;;;;;;5092595;28;20171;-74
2022/08/11 11:52:20;;;;;;;2.80;2.70;;;33.10;1.00;;;;;;5109015;28;20175;-75
2022/08/11 11:54:52;;;;;;;4.13;3.13;;;32.90;1.00;;;;;;5112053;28;20182;-77
2022/08/11 12:02:57;;;;;;;3.95;3.10;;;33.30;1.00;;;;;;5112503;28;20222;-74
2022/08/11 12:05:24;;;;;;;4.53;3.22;;;32.80;1.00;;;;;;5109013;28;20166;-76
2022/08/11 12:08:13;;;;;;;4.50;2.90;;;32.70;1.00;;;;;;5111088;28;20206;-75
2022/08/11 12:13:49;;;;;;;6.00;4.28;;;32.00;1.00;;;;;;5098854;28;20174;-76
2022/08/11 12:16:16;;;;;;;4.15;3.58;;;31.80;1.00;;;;;;5111323;28;20219;-75
2022/08/11 12:18:46;;;;;;;4.38;3.97;;;31.80;1.00;;;;;;5111450;28;20172;-74
2022/08/11 12:21:14;;;;;;;3.72;3.10;;;31.60;1.00;;;;;;5111745;28;20175;-75
2022/08/11 12:29:12;;;;;;;6.35;3.42;;;31.40;1.00;;;;;;5111364;28;20530;-74
2022/08/11 12:31:40;;;;;;;4.03;3.25;;;31.60;1.00;;;;;;5111687;28;20194;-73
2022/08/11 12:34:17;;;;;;;4.82;3.63;;;31.80;1.00;;;;;;5112593;28;20252;-74
2022/08/11 12:36:50;;;;;;;3.20;2.90;;;32.10;1.00;;;;;;5086199;28;20258;-74
2022/08/11 12:45:26;;;;;;;4.78;3.10;;;32.20;1.00;;;;;;5096778;28;20174;-73
2022/08/11 12:53:26;;;;;;;4.18;2.80;;;32.10;1.00;;;;;;5114978;28;20508;-74
2022/08/11 12:58:41;;;;;;;6.88;5.93;;;32.20;1.00;;;;;;5108646;28;20542;-75
2022/08/11 13:06:38;;;;;;;2.70;2.50;;;31.70;1.00;;;;;;5114237;28;20638;-76
2022/08/11 13:09:05;;;;;;;2.90;2.60;;;31.40;1.00;;;;;;5095028;28;20175;-74
2022/08/11 13:14:16;;;;;;;4.70;3.20;;;31.50;1.00;;;;;;5114920;28;20174;-74
2022/08/11 13:19:29;;;;;;;3.35;3.05;;;31.30;1.00;;;;;;5114712;28;20185;-75
2022/08/11 13:21:56;;;;;;;3.50;2.83;;;31.30;1.00;;;;;;5114341;28;20177;-75
2022/08/11 13:24:22;;;;;;;2.53;2.33;;;31.60;1.00;;;;;;5114584;28;20665;-74
2022/08/11 13:26:49;;;;;;;6.13;3.80;;;31.80;1.00;;;;;;5095642;28;20179;-74
2022/08/11 13:29:24;;;;;;;2.85;2.65;;;31.30;1.00;;;;;;5112164;28;20757;-72
2022/08/11 13:31:52;;;;;;;3.35;2.97;;;31.50;1.00;;;;;;5114374;28;20178;-74
2022/08/11 13:34:20;;;;;;;4.25;2.90;;;31.60;1.00;;;;;;5114272;28;20167;-72
2022/08/11 13:36:50;;;;;;;6.57;5.28;;;31.80;1.00;;;;;;5095380;28;20244;-75
2022/08/11 13:39:17;;;;;;;4.38;2.90;;;32.00;1.00;;;;;;5114739;28;20498;-76
2022/08/11 13:41:44;;;;;;;4.82;3.28;;;31.80;1.00;;;;;;5114502;28;20183;-77
2022/08/11 13:44:13;;;;;;;5.95;2.97;;;31.70;1.00;;;;;;5113581;28;20171;-75
2022/08/11 13:46:40;;;;;;;5.00;2.88;;;31.90;1.00;;;;;;5113243;28;20235;-75
2022/08/11 13:49:07;;;;;;;3.10;2.65;;;31.90;1.00;;;;;;5113320;28;20172;-75
2022/08/11 13:51:36;;;;;;;6.28;3.03;;;31.60;1.00;;;;;;5112139;28;20175;-75
2022/08/11 13:54:04;;;;;;;5.13;3.88;;;31.60;1.00;;;;;;5114704;28;20370;-75
2022/08/11 13:56:31;;;;;;;5.07;2.63;;;31.80;1.00;;;;;;5114206;28;20196;-76
2022/08/11 13:58:59;;;;;;;2.60;2.40;;;31.90;1.00;;;;;;5095952;28;20167;-76
2022/08/11 14:01:29;;;;;;;4.88;2.80;;;32.00;1.00;;;;;;5113763;28;20175;-76
2022/08/11 14:04:02;;;;;;;4.05;3.10;;;31.80;1.00;;;;;;5095708;28;20563;-75
2022/08/11 14:06:28;;;;;;;4.28;3.10;;;31.80;1.00;;;;;;5114523;28;20622;-76
2022/08/11 14:08:54;;;;;;;4.55;3.00;;;31.60;1.00;;;;;;5113994;28;20253;-76
2022/08/11 14:14:08;;;;;;;5.88;2.58;;;31.60;1.00;;;;;;5114216;28;20201;-76
2022/08/11 14:16:39;;;;;;;4.40;3.08;;;31.60;1.00;;;;;;5112708;28;20219;-75
2022/08/11 14:19:10;;;;;;;4.05;2.90;;;31.60;1.00;;;;;;5114095;28;20167;-74
2022/08/11 14:24:25;;;;;;;4.97;2.80;;;31.50;1.00;;;;;;5114124;28;20198;-75
2022/08/11 14:26:52;;;;;;;7.90;6.47;;;31.40;1.00;;;;;;5114299;28;20259;-75
2022/08/11 14:29:20;;;;;;;4.68;3.00;;;31.50;1.00;;;;;;5114465;28;20668;-75
2022/08/11 14:32:02;;;;;;;5.65;5.25;;;31.40;1.00;;;;;;5113032;28;20163;-74
2022/08/11 14:34:30;;;;;;;6.28;3.03;;;31.30;1.00;;;;;;5114240;28;20171;-74
2022/08/11 14:36:58;;;;;;;6.38;3.25;;;31.50;1.00;;;;;;5114458;28;20175;-74
2022/08/11 14:39:26;;;;;;;4.45;3.00;;;31.60;1.00;;;;;;5113973;28;20159;-74
2022/08/11 14:47:50;;;;;;;3.30;2.92;;;31.60;1.00;;;;;;5078937;28;20219;-75
2022/08/11 14:50:21;;;;;;;3.75;3.38;;;31.40;1.00;;;;;;5113749;28;20204;-75
2022/08/11 14:53:07;;;;;;;4.90;3.17;;;31.50;1.00;;;;;;5114457;28;20163;-75
2022/08/11 14:58:29;;;;;;;2.92;2.70;;;31.40;1.00;;;;;;5114123;28;20170;-75
2022/08/11 15:01:00;;;;;;;5.13;3.00;;;31.40;1.00;;;;;;5113279;28;20258;-74
2022/08/11 15:03:28;;;;;;;3.70;2.92;;;31.30;1.00;;;;;;5113372;28;20163;-73
2022/08/11 15:05:56;;;;;;;3.25;3.03;;;31.30;1.00;;;;;;5113610;28;20193;-74
2022/08/11 15:08:53;;;;;;;4.28;3.17;;;31.40;1.00;;;;;;5113681;28;20248;-74
2022/08/11 15:12:07;;;;;;;3.40;3.20;;;31.40;1.00;;;;;;5113235;28;20175;-74
2022/08/11 15:13:59;;;;;;;4.60;3.08;;;31.40;1.00;;;;;;5112887;28;20186;-75
2022/08/11 15:19:12;;;;;;;3.40;3.10;;;31.40;1.00;;;;;;5113468;28;20213;-75
2022/08/11 15:24:23;;;;;;;3.50;3.20;;;31.50;1.00;;;;;;5113187;28;20213;-74
2022/08/11 15:37:45;;;;;;;3.22;3.03;;;31.50;1.00;;;;;;5113735;28;20242;-73
2022/08/11 15:46:26;;;;;;;4.85;3.20;;;31.30;1.00;;;;;;5112382;28;20170;-75
2022/08/11 15:48:59;;;;;;;4.85;2.97;;;31.30;1.00;;;;;;5112948;28;20206;-74
2022/08/11 15:51:43;;;;;;;3.65;3.25;;;31.30;1.00;;;;;;5112855;28;20564;-74
2022/08/11 15:54:14;;;;;;;4.43;3.20;;;31.30;1.00;;;;;;5113278;28;20228;-74
2022/08/11 15:56:42;;;;;;;5.40;3.40;;;31.30;1.00;;;;;;5112313;28;20175;-75
2022/08/11 16:04:57;;;;;;;3.90;3.28;;;31.30;1.00;;;;;;5078117;28;20183;-74
2022/08/11 16:07:27;;;;;;;3.30;3.00;;;31.40;1.00;;;;;;5112329;28;20281;-75
2022/08/11 16:09:58;;;;;;;5.85;3.47;;;31.40;1.00;;;;;;5113012;28;20163;-75
2022/08/11 16:12:27;;;;;;;3.38;3.05;;;31.50;1.00;;;;;;5112995;28;20181;-74
2022/08/11 16:17:55;;;;;;;4.70;3.20;;;31.50;1.00;;;;;;5112621;28;20226;-75
2022/08/11 16:20:23;;;;;;;3.30;3.10;;;31.40;1.00;;;;;;5112619;28;20546;-75
2022/08/11 16:22:53;;;;;;;4.70;3.10;;;31.40;1.00;;;;;;5112133;28;20598;-74
2022/08/11 16:25:22;;;;;;;3.40;3.10;;;31.40;1.00;;;;;;5112533;28;20186;-74
2022/08/11 16:27:55;;;;;;;4.68;3.25;;;31.30;1.00;;;;;;5112789;28;20259;-74
2022/08/11 16:30:22;;;;;;;3.60;3.13;;;31.30;1.00;;;;;;5094738;28;20167;-74
2022/08/11 16:32:52;;;;;;;4.72;2.92;;;31.30;1.00;;;;;;5112065;28;20278;-75
2022/08/11 16:40:54;;;;;;;3.03;2.80;;;31.10;1.00;;;;;;5112717;28;20289;-75
2022/08/11 16:47:02;;;;;;;5.65;2.70;;;31.30;1.00;;;;;;5112638;28;20214;-74
2022/08/11 16:49:27;;;;;;;3.15;2.50;;;31.20;1.00;;;;;;5101259;28;20231;-75
2022/08/11 16:51:53;;;;;;;3.22;2.92;;;31.30;1.00;;;;;;5112481;28;20658;-75
2022/08/11 16:54:19;;;;;;;3.10;2.80;;;31.30;1.00;;;;;;5112884;28;20308;-74
2022/08/11 16:56:52;;;;;;;3.47;3.00;;;31.30;1.00;;;;;;5111377;28;20180;-74
2022/08/11 16:59:26;;;;;;;5.95;3.03;;;31.10;1.00;;;;;;5112310;28;20167;-74
2022/08/11 17:01:57;;;;;;;3.20;2.95;;;31.10;1.00;;;;;;5112334;28;20206;-74
2022/08/11 17:13:32;;;;;;;3.92;3.05;;;30.90;1.00;;;;;;5112121;28;20178;-74
2022/08/11 17:16:07;;;;;;;3.20;2.88;;;30.80;1.00;;;;;;5112100;28;20275;-75
2022/08/11 17:19:16;;;;;;;5.43;3.10;;;30.80;1.00;;;;;;5112023;28;20163;-75
2022/08/11 17:24:31;;;;;;;5.20;3.40;;;30.70;1.00;;;;;;5115627;28;20532;-75
2022/08/11 17:26:59;;;;;;;4.93;3.17;;;30.70;1.00;;;;;;5097362;28;20225;-75
2022/08/11 17:29:33;;;;;;;3.95;3.15;;;30.60;1.00;;;;;;5097754;28;20199;-73
2022/08/11 17:37:47;;;;;;;4.13;3.38;;;30.60;1.00;;;;;;5115913;28;20174;-74
2022/08/11 17:40:23;;;;;;;3.13;2.90;;;30.50;1.00;;;;;;5115403;28;20316;-74
2022/08/11 17:48:28;;;;;;;4.63;3.08;;;30.50;1.00;;;;;;5100403;28;20253;-74
2022/08/11 17:51:01;;;;;;;4.38;3.22;;;30.50;1.00;;;;;;5115233;28;20171;-74
2022/08/11 18:01:48;;;;;;;5.18;3.55;;;30.30;1.00;;;;;;5115509;28;20178;-75
2022/08/11 18:04:15;;;;;;;6.55;3.38;;;30.30;1.00;;;;;;5115691;28;20265;-74
2022/08/11 18:06:42;;;;;;;8.02;3.67;;;30.20;1.00;;;;;;5115341;28;20619;-74
